createdAt,value
2023-05-02T00:02:25.128Z,10.68
2023-05-02T00:04:51.606Z,21.25
2023-05-02T00:07:17.988Z,17.67
2023-05-02T00:09:44.388Z,24.20
2023-05-02T00:12:10.720Z,23.07
2023-05-02T00:14:37.173Z,19.15
2023-05-02T00:17:03.660Z,22.40
2023-05-02T00:19:30.086Z,24.35
2023-05-02T00:21:56.419Z,18.23
2023-05-02T00:24:22.799Z,23.43
2023-05-02T00:26:49.161Z,20.25
2023-05-02T00:29:15.499Z,20.85
2023-05-02T00:31:41.966Z,19.08
2023-05-02T00:34:08.371Z,15.63
2023-05-02T00:36:34.872Z,35.60
2023-05-02T00:39:01.470Z,23.30
2023-05-02T00:41:27.965Z,26.42
2023-05-02T00:43:54.297Z,25.60
2023-05-02T00:46:20.708Z,21.65
2023-05-02T00:48:47.131Z,25.57
2023-05-02T00:51:13.506Z,20.35
2023-05-02T00:53:40.687Z,33.78
2023-05-02T00:56:07.708Z,34.55
2023-05-02T00:58:34.342Z,29.20
2023-05-02T01:01:19.360Z,31.93
2023-05-02T01:03:54.733Z,31.17
2023-05-02T01:06:29.987Z,21.98
2023-05-02T01:09:10.352Z,19.67
2023-05-02T01:11:53.504Z,19.38
2023-05-02T01:14:21.306Z,21.33
2023-05-02T01:16:50.007Z,22.33
2023-05-02T01:19:25.890Z,21.60
2023-05-02T01:21:53.470Z,16.55
2023-05-02T01:24:23.029Z,15.50
2023-05-02T01:27:18.803Z,13.10
2023-05-02T01:29:45.898Z,17.15
2023-05-02T01:32:13.542Z,16.65
2023-05-02T01:34:40.677Z,17.80
2023-05-02T01:37:08.542Z,26.27
2023-05-02T01:39:36.702Z,21.43
2023-05-02T01:42:03.524Z,35.10
2023-05-02T01:44:30.312Z,31.02
2023-05-02T01:46:57.888Z,37.40
2023-05-02T01:49:25.280Z,35.88
2023-05-02T01:51:51.907Z,41.57
2023-05-02T01:54:20.209Z,35.13
2023-05-02T01:56:47.296Z,31.05
2023-05-02T01:59:15.229Z,36.63
2023-05-02T02:01:43.046Z,30.33
2023-05-02T02:04:11.147Z,28.80
2023-05-02T02:06:37.794Z,31.40
2023-05-02T02:09:04.266Z,31.67
2023-05-02T02:11:35.903Z,35.35
2023-05-02T02:14:06.148Z,25.30
2023-05-02T02:16:33.636Z,40.67
2023-05-02T02:19:03.923Z,34.05
2023-05-02T02:21:30.837Z,26.85
2023-05-02T02:24:01.746Z,24.52
2023-05-02T02:26:28.223Z,21.75
2023-05-02T02:28:55.863Z,14.10
2023-05-02T02:31:22.258Z,21.55
2023-05-02T02:33:48.839Z,12.43
2023-05-02T02:36:35.508Z,12.63
2023-05-02T02:39:04.749Z,9.45
2023-05-02T02:41:41.903Z,13.63
2023-05-02T02:44:27.198Z,11.60
2023-05-02T02:47:06.975Z,11.35
2023-05-02T02:50:02.790Z,8.90
2023-05-02T02:53:01.553Z,9.05
2023-05-02T02:55:39.867Z,8.75
2023-05-02T02:58:15.113Z,6.93
2023-05-02T03:00:41.746Z,7.85
2023-05-02T03:03:08.511Z,6.70
2023-05-02T03:05:35.507Z,7.28
2023-05-02T03:08:02.157Z,9.60
2023-05-02T03:10:28.602Z,7.77
2023-05-02T03:12:55.089Z,8.60
2023-05-02T03:15:40.123Z,7.80
2023-05-02T03:18:06.658Z,9.18
2023-05-02T03:20:33.173Z,9.30
2023-05-02T03:22:59.760Z,10.43
2023-05-02T03:25:26.224Z,11.60
2023-05-02T03:27:52.686Z,10.98
2023-05-02T03:30:19.472Z,12.60
2023-05-02T03:32:46.034Z,11.68
2023-05-02T03:35:12.666Z,13.57
2023-05-02T03:37:39.227Z,13.30
2023-05-02T03:40:06.424Z,13.93
2023-05-02T03:42:34.839Z,13.27
2023-05-02T03:45:01.395Z,14.45
2023-05-02T03:47:27.931Z,13.20
2023-05-02T03:49:54.431Z,14.05
2023-05-02T03:52:21.021Z,15.98
2023-05-02T03:54:48.197Z,14.38
2023-05-02T03:57:15.309Z,13.02
2023-05-02T03:59:41.879Z,10.93
2023-05-02T04:02:08.785Z,10.23
2023-05-02T04:04:35.306Z,12.18
2023-05-02T04:07:01.971Z,11.02
2023-05-02T04:09:28.548Z,11.43
2023-05-02T04:11:55.020Z,10.67
2023-05-02T04:14:21.629Z,10.90
2023-05-02T04:16:49.419Z,10.52
2023-05-02T04:19:16.659Z,10.70
2023-05-02T04:21:43.253Z,13.68
2023-05-02T04:24:09.825Z,13.40
2023-05-02T04:26:36.667Z,14.15
2023-05-02T04:29:03.686Z,14.95
2023-05-02T04:31:32.513Z,16.10
2023-05-02T04:33:59.232Z,14.75
2023-05-02T04:36:25.869Z,14.70
2023-05-02T04:38:52.348Z,14.43
2023-05-02T04:41:18.854Z,14.15
2023-05-02T04:43:45.440Z,14.30
2023-05-02T04:46:12.009Z,12.35
2023-05-02T04:48:38.517Z,10.60
2023-05-02T04:51:05.386Z,9.02
2023-05-02T04:53:31.932Z,9.57
2023-05-02T04:55:58.578Z,9.70
2023-05-02T04:58:25.182Z,10.10
2023-05-02T05:00:51.745Z,10.90
2023-05-02T05:03:18.298Z,9.68
2023-05-02T05:05:44.967Z,9.85
2023-05-02T05:08:11.505Z,8.60
2023-05-02T05:10:38.012Z,8.90
2023-05-02T05:13:04.623Z,7.97
2023-05-02T05:15:31.087Z,7.88
2023-05-02T05:17:57.577Z,9.20
2023-05-02T05:20:24.148Z,9.65
2023-05-02T05:22:50.645Z,10.60
2023-05-02T05:25:17.255Z,8.30
2023-05-02T05:27:43.866Z,8.25
2023-05-02T05:30:10.858Z,9.63
2023-05-02T05:32:37.430Z,8.10
2023-05-02T05:35:04.331Z,8.13
2023-05-02T05:37:30.819Z,8.43
2023-05-02T05:39:57.545Z,7.72
2023-05-02T05:42:24.286Z,8.00
2023-05-02T05:44:50.769Z,7.45
2023-05-02T05:47:20.856Z,7.40
2023-05-02T05:49:47.707Z,7.10
2023-05-02T05:52:14.172Z,5.55
2023-05-02T05:54:41.460Z,7.57
2023-05-02T05:57:08.115Z,6.78
2023-05-02T05:59:37.713Z,7.15
2023-05-02T06:02:04.391Z,6.57
2023-05-02T06:04:31.546Z,5.53
2023-05-02T06:06:58.143Z,7.22
2023-05-02T06:09:24.813Z,7.32
2023-05-02T06:11:51.292Z,6.07
2023-05-02T06:14:17.741Z,5.93
2023-05-02T06:16:44.309Z,6.30
2023-05-02T06:19:10.929Z,5.35
2023-05-02T06:21:37.509Z,5.57
2023-05-02T06:24:04.382Z,6.45
2023-05-02T06:26:31.015Z,6.37
2023-05-02T06:28:57.510Z,5.63
2023-05-02T06:31:24.133Z,5.93
2023-05-02T06:33:50.726Z,5.82
2023-05-02T06:36:17.193Z,6.55
2023-05-02T06:38:43.757Z,5.03
2023-05-02T06:41:15.321Z,5.93
2023-05-02T06:43:43.838Z,5.30
2023-05-02T06:46:10.288Z,5.30
2023-05-02T06:48:36.860Z,6.20
2023-05-02T06:51:03.476Z,6.03
2023-05-02T06:53:32.942Z,4.93
2023-05-02T06:55:59.827Z,5.00
2023-05-02T06:58:26.498Z,3.90
2023-05-02T07:00:53.030Z,5.25
2023-05-02T07:03:19.585Z,5.40
2023-05-02T07:05:46.077Z,5.57
2023-05-02T07:08:12.569Z,5.32
2023-05-02T07:10:39.099Z,5.10
2023-05-02T07:13:05.579Z,4.63
2023-05-02T07:15:32.135Z,4.13
2023-05-02T07:17:58.680Z,4.80
2023-05-02T07:20:25.271Z,4.20
2023-05-02T07:22:51.807Z,5.38
2023-05-02T07:25:18.432Z,4.30
2023-05-02T07:27:44.931Z,4.43
2023-05-02T07:30:11.980Z,6.38
2023-05-02T07:32:38.512Z,5.00
2023-05-02T07:35:05.272Z,5.00
2023-05-02T07:37:35.079Z,4.85
2023-05-02T07:40:02.518Z,3.97
2023-05-02T07:42:32.471Z,3.72
2023-05-02T07:44:59.634Z,4.20
2023-05-02T07:47:27.275Z,2.88
2023-05-02T07:49:54.693Z,4.47
2023-05-02T07:52:21.880Z,3.07
2023-05-02T07:54:48.850Z,4.03
2023-05-02T07:57:15.713Z,3.40
2023-05-02T07:59:42.520Z,3.60
2023-05-02T08:02:09.314Z,3.25
2023-05-02T08:04:35.877Z,2.93
2023-05-02T08:07:02.366Z,2.85
2023-05-02T08:09:29.205Z,2.75
2023-05-02T08:11:55.735Z,2.80
2023-05-02T08:14:22.292Z,4.22
2023-05-02T08:16:49.324Z,4.23
2023-05-02T08:19:15.894Z,3.55
2023-05-02T08:21:42.740Z,3.65
2023-05-02T08:24:09.323Z,3.28
2023-05-02T08:26:35.771Z,3.10
2023-05-02T08:29:02.235Z,3.47
2023-05-02T08:31:28.766Z,4.03
2023-05-02T08:33:55.258Z,4.38
2023-05-02T08:36:21.768Z,4.65
2023-05-02T08:38:48.341Z,3.22
2023-05-02T08:41:16.654Z,3.50
2023-05-02T08:43:43.957Z,2.92
2023-05-02T08:46:13.012Z,3.35
2023-05-02T08:48:41.813Z,3.35
2023-05-02T08:51:10.512Z,3.10
2023-05-02T08:53:38.836Z,3.73
2023-05-02T08:56:07.581Z,3.42
2023-05-02T08:58:35.241Z,3.50
2023-05-02T09:01:14.893Z,3.58
2023-05-02T09:03:43.711Z,4.18
2023-05-02T09:06:16.206Z,4.30
2023-05-02T09:08:44.596Z,3.25
2023-05-02T09:11:12.263Z,3.72
2023-05-02T09:13:44.292Z,3.75
2023-05-02T09:16:11.448Z,2.78
2023-05-02T09:18:40.587Z,4.87
2023-05-02T09:21:15.896Z,3.38
2023-05-02T09:23:48.335Z,3.00
2023-05-02T09:26:18.491Z,3.97
2023-05-02T09:28:45.957Z,2.72
2023-05-02T09:31:26.884Z,2.67
2023-05-02T09:34:21.486Z,3.60
2023-05-02T09:36:52.197Z,3.83
2023-05-02T09:39:23.005Z,2.83
2023-05-02T09:41:52.495Z,3.50
2023-05-02T09:44:21.819Z,2.67
2023-05-02T09:46:50.381Z,3.13
2023-05-02T09:49:17.484Z,3.67
2023-05-02T09:51:44.373Z,2.60
2023-05-02T09:54:10.929Z,2.20
2023-05-02T09:56:54.600Z,3.67
2023-05-02T09:59:21.063Z,2.53
2023-05-02T10:01:58.647Z,2.10
2023-05-02T10:04:26.796Z,3.42
2023-05-02T10:06:54.609Z,1.88
2023-05-02T10:09:22.316Z,2.93
2023-05-02T10:12:00.614Z,3.33
2023-05-02T10:14:29.368Z,4.07
2023-05-02T10:17:13.630Z,2.53
2023-05-02T10:19:55.460Z,2.00
2023-05-02T10:22:22.431Z,1.93
2023-05-02T10:24:49.313Z,1.90
2023-05-02T10:27:15.684Z,2.75
2023-05-02T10:29:42.636Z,1.73
2023-05-02T10:32:09.397Z,2.28
2023-05-02T10:34:35.886Z,1.80
2023-05-02T10:37:02.870Z,1.95
2023-05-02T10:39:29.550Z,2.35
2023-05-02T10:41:57.865Z,2.10
2023-05-02T10:44:44.516Z,1.83
2023-05-02T10:47:23.921Z,1.63
2023-05-02T10:49:51.607Z,2.05
2023-05-02T10:52:28.121Z,2.65
2023-05-02T10:55:14.699Z,2.42
2023-05-02T10:58:05.200Z,2.40
2023-05-02T11:00:32.801Z,2.90
2023-05-02T11:03:00.257Z,3.33
2023-05-02T11:05:27.122Z,2.17
2023-05-02T11:08:12.709Z,2.53
2023-05-02T11:10:39.066Z,2.28
2023-05-02T11:13:05.408Z,2.10
2023-05-02T11:15:32.719Z,1.90
2023-05-02T11:18:11.541Z,2.00
2023-05-02T11:20:39.599Z,5.18
2023-05-02T11:23:15.418Z,3.25
2023-05-02T11:25:42.658Z,3.17
2023-05-02T11:28:28.965Z,1.98
2023-05-02T11:30:56.174Z,2.20
2023-05-02T11:33:23.863Z,3.17
2023-05-02T11:35:50.291Z,4.95
2023-05-02T11:38:17.495Z,6.50
2023-05-02T11:40:50.528Z,2.67
2023-05-02T11:43:17.927Z,1.83
2023-05-02T11:45:44.379Z,2.50
2023-05-02T11:48:12.455Z,3.80
2023-05-02T11:50:48.613Z,2.30
2023-05-02T11:53:16.994Z,2.20
2023-05-02T11:55:54.042Z,2.20
2023-05-02T11:58:23.481Z,3.38
2023-05-02T12:00:50.505Z,3.63
2023-05-02T12:03:24.485Z,2.10
2023-05-02T12:05:51.059Z,2.10
2023-05-02T12:08:24.395Z,2.58
2023-05-02T12:10:52.008Z,3.25
2023-05-02T12:13:19.231Z,2.63
2023-05-02T12:15:45.692Z,2.57
2023-05-02T12:18:12.904Z,2.58
2023-05-02T12:20:39.406Z,2.78
2023-05-02T12:23:06.499Z,3.80
2023-05-02T12:25:36.526Z,3.50
2023-05-02T12:28:03.563Z,4.33
2023-05-02T12:30:30.503Z,2.20
2023-05-02T12:32:57.673Z,2.70
2023-05-02T12:35:24.164Z,2.58
2023-05-02T12:37:50.511Z,2.40
2023-05-02T12:40:17.206Z,3.30
2023-05-02T12:42:43.580Z,2.15
2023-05-02T12:45:19.318Z,4.18
2023-05-02T12:47:45.876Z,2.03
2023-05-02T12:50:12.298Z,3.50
2023-05-02T12:52:51.815Z,2.30
2023-05-02T12:55:25.060Z,3.47
2023-05-02T12:57:59.719Z,4.78
2023-05-02T13:00:26.137Z,1.70
2023-05-02T13:02:52.705Z,2.17
2023-05-02T13:05:21.096Z,3.67
2023-05-02T13:07:50.434Z,2.13
2023-05-02T13:10:16.800Z,3.20
2023-05-02T13:12:45.060Z,9.90
2023-05-02T13:15:11.743Z,3.92
2023-05-02T13:17:38.276Z,2.87
2023-05-02T13:20:05.118Z,4.97
2023-05-02T13:22:31.602Z,4.00
2023-05-02T13:24:58.002Z,2.50
2023-05-02T13:27:24.980Z,2.35
2023-05-02T13:29:51.780Z,3.60
2023-05-02T13:32:18.326Z,3.63
2023-05-02T13:34:44.865Z,2.10
2023-05-02T13:37:11.385Z,3.63
2023-05-02T13:39:37.761Z,4.82
2023-05-02T13:42:05.902Z,2.70
2023-05-02T13:44:32.695Z,2.28
2023-05-02T13:46:59.176Z,2.72
2023-05-02T13:49:25.675Z,2.67
2023-05-02T13:51:52.024Z,2.63
2023-05-02T13:54:18.392Z,2.17
2023-05-02T13:56:45.066Z,3.00
2023-05-02T13:59:11.465Z,4.47
2023-05-02T14:01:37.879Z,5.53
2023-05-02T14:04:05.134Z,2.83
2023-05-02T14:06:31.547Z,2.53
2023-05-02T14:08:57.974Z,4.95
2023-05-02T14:11:24.411Z,3.03
2023-05-02T14:13:50.756Z,3.53
2023-05-02T14:16:17.125Z,8.30
2023-05-02T14:18:43.513Z,3.80
2023-05-02T14:21:09.884Z,3.33
2023-05-02T14:23:37.860Z,6.00
2023-05-02T14:26:04.583Z,4.03
2023-05-02T14:28:30.953Z,2.70
2023-05-02T14:30:57.312Z,3.03
2023-05-02T14:33:23.682Z,5.30
2023-05-02T14:35:50.056Z,1.73
2023-05-02T14:38:16.441Z,3.17
2023-05-02T14:40:42.889Z,3.95
2023-05-02T14:43:09.506Z,4.33
2023-05-02T14:45:35.896Z,4.07
2023-05-02T14:48:02.425Z,8.02
2023-05-02T14:50:28.816Z,2.33
2023-05-02T14:52:55.228Z,7.20
2023-05-02T14:55:21.716Z,6.57
2023-05-02T14:57:48.303Z,13.18
2023-05-02T15:00:15.105Z,8.25
2023-05-02T15:02:41.656Z,3.95
2023-05-02T15:05:08.271Z,3.88
2023-05-02T15:07:34.624Z,6.77
2023-05-02T15:10:01.204Z,3.15
2023-05-02T15:12:27.807Z,4.75
2023-05-02T15:14:54.155Z,2.05
2023-05-02T15:17:21.237Z,5.55
2023-05-02T15:19:47.610Z,5.03
2023-05-02T15:22:13.974Z,2.88
2023-05-02T15:24:40.350Z,2.13
2023-05-02T15:27:06.787Z,2.33
2023-05-02T15:29:33.140Z,4.38
2023-05-02T15:31:59.616Z,6.90
2023-05-02T15:34:26.124Z,4.07
2023-05-02T15:36:52.481Z,3.83
2023-05-02T15:39:18.901Z,3.92
2023-05-02T15:41:45.256Z,3.95
2023-05-02T15:44:11.630Z,3.37
2023-05-02T15:46:38.360Z,3.88
2023-05-02T15:49:04.782Z,5.00
2023-05-02T15:51:31.169Z,2.58
2023-05-02T15:53:58.557Z,3.88
2023-05-02T15:56:25.544Z,4.33
2023-05-02T15:58:52.569Z,18.00
2023-05-02T16:01:19.074Z,6.25
2023-05-02T16:03:45.557Z,3.70
2023-05-02T16:06:12.069Z,6.35
2023-05-02T16:08:39.427Z,4.57
2023-05-02T16:11:05.821Z,3.55
2023-05-02T16:13:32.304Z,4.20
2023-05-02T16:15:58.798Z,6.22
2023-05-02T16:18:25.182Z,2.60
2023-05-02T16:20:51.587Z,4.53
2023-05-02T16:23:17.935Z,4.50
2023-05-02T16:25:44.291Z,2.65
2023-05-02T16:28:10.648Z,35.97
2023-05-02T16:30:37.050Z,7.20
2023-05-02T16:33:03.464Z,4.23
2023-05-02T16:35:29.869Z,8.07
2023-05-02T16:37:56.344Z,6.05
2023-05-02T16:40:22.719Z,8.95
2023-05-02T16:42:49.128Z,5.32
2023-05-02T16:45:15.592Z,3.47
2023-05-02T16:47:41.959Z,5.13
2023-05-02T16:50:08.447Z,4.38
2023-05-02T16:52:34.915Z,4.90
2023-05-02T16:55:01.565Z,20.00
2023-05-02T16:57:27.989Z,8.63
2023-05-02T16:59:54.376Z,4.60
2023-05-02T17:02:20.862Z,4.15
2023-05-02T17:04:48.140Z,4.05
2023-05-02T17:07:14.588Z,8.98
2023-05-02T17:09:41.360Z,6.73
2023-05-02T17:12:10.939Z,5.25
2023-05-02T17:14:37.983Z,5.03
2023-05-02T17:17:04.442Z,4.03
2023-05-02T17:19:30.844Z,4.57
2023-05-02T17:21:57.854Z,7.20
2023-05-02T17:24:24.347Z,7.10
2023-05-02T17:26:51.288Z,5.80
2023-05-02T17:29:17.809Z,5.60
2023-05-02T17:31:44.266Z,4.85
2023-05-02T17:34:10.624Z,7.40
2023-05-02T17:36:37.099Z,10.15
2023-05-02T17:39:03.505Z,13.55
2023-05-02T17:41:30.158Z,10.15
2023-05-02T17:43:56.655Z,8.20
2023-05-02T17:46:23.090Z,10.23
2023-05-02T17:48:49.478Z,10.27
2023-05-02T17:51:15.848Z,9.27
2023-05-02T17:53:42.185Z,7.18
2023-05-02T17:56:08.591Z,7.07
2023-05-02T17:58:35.016Z,8.90
2023-05-02T18:01:07.800Z,7.03
2023-05-02T18:03:34.322Z,8.05
2023-05-02T18:06:00.886Z,11.95
2023-05-02T18:08:27.260Z,7.63
2023-05-02T18:10:53.612Z,5.73
2023-05-02T18:13:20.101Z,12.75
2023-05-02T18:15:54.495Z,10.18
2023-05-02T18:18:20.888Z,10.77
2023-05-02T18:20:47.278Z,13.23
2023-05-02T18:23:13.623Z,14.55
2023-05-02T18:25:39.993Z,22.17
2023-05-02T18:28:06.497Z,20.02
2023-05-02T18:30:35.777Z,18.73
2023-05-02T18:33:02.174Z,17.10
2023-05-02T18:35:29.382Z,12.57
2023-05-02T18:37:55.796Z,13.30
2023-05-02T18:40:22.546Z,8.63
2023-05-02T18:42:48.959Z,11.23
2023-05-02T18:45:15.367Z,16.85
2023-05-02T18:47:41.894Z,9.32
2023-05-02T18:50:08.537Z,14.25
2023-05-02T18:52:35.385Z,9.80
2023-05-02T18:55:02.296Z,7.20
2023-05-02T18:57:30.089Z,13.75
2023-05-02T18:59:56.478Z,14.10
2023-05-02T19:02:22.893Z,13.60
2023-05-02T19:04:49.298Z,12.48
2023-05-02T19:07:15.715Z,10.98
2023-05-02T19:09:42.078Z,14.38
2023-05-02T19:12:08.504Z,12.23
2023-05-02T19:14:34.879Z,10.27
2023-05-02T19:17:01.323Z,12.82
2023-05-02T19:19:27.783Z,14.00
2023-05-02T19:21:54.145Z,11.18
2023-05-02T19:24:20.527Z,7.97
2023-05-02T19:26:47.036Z,15.55
2023-05-02T19:29:13.376Z,14.23
2023-05-02T19:31:39.806Z,15.77
2023-05-02T19:34:06.711Z,13.05
2023-05-02T19:36:33.064Z,12.10
2023-05-02T19:38:59.427Z,15.35
2023-05-02T19:41:26.051Z,14.68
2023-05-02T19:43:52.554Z,9.20
2023-05-02T19:46:19.462Z,8.85
2023-05-02T19:48:45.906Z,13.52
2023-05-02T19:51:12.264Z,7.82
2023-05-02T19:53:38.656Z,10.27
2023-05-02T19:56:05.553Z,10.68
2023-05-02T19:58:32.151Z,9.55
2023-05-02T20:00:59.251Z,11.75
2023-05-02T20:03:25.919Z,12.23
2023-05-02T20:05:52.432Z,11.23
2023-05-02T20:08:18.787Z,12.63
2023-05-02T20:10:45.277Z,15.48
2023-05-02T20:13:12.028Z,20.00
2023-05-02T20:15:38.528Z,16.23
2023-05-02T20:18:05.039Z,15.80
2023-05-02T20:20:31.646Z,15.13
2023-05-02T20:22:57.998Z,15.25
2023-05-02T20:25:24.456Z,16.52
2023-05-02T20:27:51.384Z,12.10
2023-05-02T20:30:18.023Z,13.15
2023-05-02T20:32:44.451Z,15.75
2023-05-02T20:35:10.954Z,12.88
2023-05-02T20:37:37.472Z,10.88
2023-05-02T20:40:04.522Z,15.60
2023-05-02T20:42:31.219Z,23.58
2023-05-02T20:44:58.229Z,24.38
2023-05-02T20:47:28.881Z,18.45
2023-05-02T20:49:55.844Z,10.93
2023-05-02T20:52:22.320Z,10.65
2023-05-02T20:54:49.040Z,10.25
2023-05-02T20:57:16.361Z,10.75
2023-05-02T20:59:42.952Z,10.25
2023-05-02T21:02:10.007Z,9.48
2023-05-02T21:04:36.581Z,16.15
2023-05-02T21:07:03.029Z,13.02
2023-05-02T21:09:29.601Z,11.32
2023-05-02T21:11:55.991Z,11.48
2023-05-02T21:14:23.562Z,11.80
2023-05-02T21:16:50.070Z,11.90
2023-05-02T21:19:16.544Z,8.93
2023-05-02T21:21:42.893Z,21.08
2023-05-02T21:24:09.341Z,11.43
2023-05-02T21:26:35.691Z,11.25
2023-05-02T21:29:02.050Z,15.30
2023-05-02T21:31:28.664Z,10.35
2023-05-02T21:33:55.022Z,8.75
2023-05-02T21:36:21.376Z,11.75
2023-05-02T21:38:47.771Z,10.93
2023-05-02T21:41:14.100Z,7.15
2023-05-02T21:43:40.459Z,6.80
2023-05-02T21:46:06.939Z,14.23
2023-05-02T21:48:33.633Z,6.10
2023-05-02T21:50:59.975Z,5.50
2023-05-02T21:53:26.472Z,5.72
2023-05-02T21:55:53.036Z,4.28
2023-05-02T21:58:19.421Z,6.35
2023-05-02T22:00:45.829Z,5.20
2023-05-02T22:03:12.195Z,3.67
2023-05-02T22:05:38.877Z,4.45
2023-05-02T22:08:05.759Z,6.68
2023-05-02T22:10:32.107Z,3.92
2023-05-02T22:12:58.482Z,5.57
2023-05-02T22:15:24.926Z,5.53
2023-05-02T22:17:51.312Z,6.40
2023-05-02T22:20:17.686Z,5.50
2023-05-02T22:22:44.077Z,6.05
2023-05-02T22:25:10.419Z,8.18
2023-05-02T22:27:36.788Z,7.03
2023-05-02T22:30:03.507Z,6.40
2023-05-02T22:32:30.282Z,4.95
2023-05-02T22:34:56.663Z,3.83
2023-05-02T22:37:23.098Z,6.50
2023-05-02T22:39:49.437Z,5.95
2023-05-02T22:42:15.775Z,4.63
2023-05-02T22:44:53.011Z,4.57
2023-05-02T22:47:20.298Z,4.20
2023-05-02T22:49:46.676Z,5.43
2023-05-02T22:52:13.619Z,5.03
2023-05-02T22:54:40.666Z,6.28
2023-05-02T22:57:07.259Z,4.78
2023-05-02T22:59:33.606Z,4.25
2023-05-02T23:02:00.041Z,5.00
2023-05-02T23:04:27.144Z,5.22
2023-05-02T23:06:53.612Z,5.18
2023-05-02T23:09:20.033Z,4.22
2023-05-02T23:11:46.505Z,3.72
2023-05-02T23:14:12.859Z,6.47
2023-05-02T23:16:39.233Z,4.90
2023-05-02T23:19:05.646Z,4.75
2023-05-02T23:21:32.014Z,4.72
2023-05-02T23:23:58.379Z,3.40
2023-05-02T23:26:24.780Z,3.70
2023-05-02T23:28:51.170Z,5.72
2023-05-02T23:31:17.539Z,3.55
2023-05-02T23:33:43.951Z,5.05
2023-05-02T23:36:10.296Z,2.70
2023-05-02T23:38:36.749Z,4.57
2023-05-02T23:41:03.136Z,4.53
2023-05-02T23:43:29.778Z,6.43
2023-05-02T23:45:56.125Z,3.92
2023-05-02T23:48:22.545Z,3.83
2023-05-02T23:50:48.903Z,4.18
2023-05-02T23:53:15.271Z,4.68
2023-05-02T23:55:41.708Z,6.53
2023-05-02T23:58:08.109Z,5.82
